createdAt,value
2023-03-24T00:01:26.923Z,9.64
2023-03-24T00:03:55.204Z,9.42
2023-03-24T00:06:23.686Z,9.25
2023-03-24T00:08:53.448Z,9.10
2023-03-24T00:11:22.084Z,8.96
2023-03-24T00:13:50.949Z,8.86
2023-03-24T00:16:20.105Z,8.79
2023-03-24T00:18:53.907Z,8.72
2023-03-24T00:21:25.178Z,8.67
2023-03-24T00:23:55.606Z,8.61
2023-03-24T00:26:25.675Z,8.56
2023-03-24T00:28:55.760Z,8.51
2023-03-24T00:31:25.578Z,8.47
2023-03-24T00:33:54.855Z,8.44
2023-03-24T00:36:26.443Z,8.42
2023-03-24T00:38:56.854Z,8.37
2023-03-24T00:41:27.408Z,8.34
2023-03-24T00:43:58.715Z,8.29
2023-03-24T00:46:28.219Z,8.23
2023-03-24T00:49:03.016Z,8.22
2023-03-24T00:51:39.694Z,8.24
2023-03-24T00:54:10.644Z,8.19
2023-03-24T00:56:40.826Z,8.13
2023-03-24T00:59:10.734Z,8.07
2023-03-24T01:01:41.415Z,8.03
2023-03-24T01:04:10.674Z,7.98
2023-03-24T01:06:40.176Z,7.93
2023-03-24T01:09:08.636Z,7.90
2023-03-24T01:11:41.561Z,7.87
2023-03-24T01:14:12.072Z,7.83
2023-03-24T01:16:42.408Z,7.79
2023-03-24T01:19:10.894Z,7.73
2023-03-24T01:21:40.341Z,7.69
2023-03-24T01:24:09.212Z,7.67
2023-03-24T01:26:37.483Z,7.64
2023-03-24T01:29:06.268Z,7.61
2023-03-24T01:31:35.967Z,7.58
2023-03-24T01:34:04.823Z,7.54
2023-03-24T01:36:33.015Z,7.51
2023-03-24T01:39:01.641Z,7.47
2023-03-24T01:41:35.228Z,7.44
2023-03-24T01:44:31.844Z,7.43
2023-03-24T01:47:01.728Z,7.41
2023-03-24T01:49:35.874Z,7.40
2023-03-24T01:52:10.001Z,7.39
2023-03-24T01:55:11.362Z,7.38
2023-03-24T01:57:48.357Z,7.36
2023-03-24T02:00:19.606Z,7.34
2023-03-24T02:03:14.943Z,7.32
2023-03-24T02:05:51.932Z,7.31
2023-03-24T02:08:28.843Z,7.29
2023-03-24T02:10:58.183Z,7.28
2023-03-24T02:13:29.605Z,7.26
2023-03-24T02:16:13.025Z,7.24
2023-03-24T02:19:12.816Z,7.22
2023-03-24T02:22:19.103Z,7.19
2023-03-24T02:25:21.892Z,7.18
2023-03-24T02:28:15.845Z,7.16
2023-03-24T02:31:02.486Z,7.13
2023-03-24T02:33:53.338Z,7.11
2023-03-24T02:36:21.999Z,7.09
2023-03-24T02:39:28.395Z,7.05
2023-03-24T02:41:59.741Z,7.02
2023-03-24T02:44:46.859Z,6.99
2023-03-24T02:47:54.657Z,6.94
2023-03-24T02:50:31.606Z,6.88
2023-03-24T02:53:15.621Z,6.84
2023-03-24T02:56:01.742Z,6.77
2023-03-24T02:58:39.013Z,6.73
2023-03-24T03:01:15.284Z,6.70
2023-03-24T03:04:14.160Z,6.67
2023-03-24T03:06:49.227Z,6.64
2023-03-24T03:09:19.559Z,6.60
2023-03-24T03:11:51.844Z,6.57
2023-03-24T03:14:32.942Z,6.54
2023-03-24T03:17:06.619Z,6.52
2023-03-24T03:19:43.962Z,6.52
2023-03-24T03:22:18.134Z,6.53
2023-03-24T03:24:53.351Z,6.53
2023-03-24T03:27:29.277Z,6.53
2023-03-24T03:30:07.114Z,6.53
2023-03-24T03:32:40.245Z,6.52
2023-03-24T03:35:14.826Z,6.51
2023-03-24T03:37:44.854Z,6.48
2023-03-24T03:40:20.677Z,6.47
2023-03-24T03:42:52.084Z,6.45
2023-03-24T03:45:20.407Z,6.44
2023-03-24T03:47:49.255Z,6.43
2023-03-24T03:50:17.643Z,6.42
2023-03-24T03:52:46.167Z,6.41
2023-03-24T03:55:15.026Z,6.41
2023-03-24T03:57:45.806Z,6.42
2023-03-24T04:00:24.736Z,6.44
2023-03-24T04:03:43.001Z,6.45
2023-03-24T04:06:27.370Z,6.46
2023-03-24T04:09:15.031Z,6.47
2023-03-24T04:12:06.419Z,6.46
2023-03-24T04:15:08.833Z,6.46
2023-03-24T04:18:21.139Z,6.44
2023-03-24T04:21:28.661Z,6.46
2023-03-24T04:24:27.699Z,6.46
2023-03-24T04:27:14.816Z,6.47
2023-03-24T04:29:56.993Z,6.49
2023-03-24T04:32:43.610Z,6.50
2023-03-24T04:35:26.688Z,6.52
2023-03-24T04:38:27.885Z,6.54
2023-03-24T04:41:18.317Z,6.58
2023-03-24T04:43:55.201Z,6.59
2023-03-24T04:46:25.129Z,6.61
2023-03-24T04:48:58.048Z,6.62
2023-03-24T04:51:35.807Z,6.63
2023-03-24T04:54:06.556Z,6.64
2023-03-24T04:56:48.519Z,6.67
2023-03-24T04:59:24.799Z,6.71
2023-03-24T05:01:53.137Z,6.74
2023-03-24T05:04:26.688Z,6.79
2023-03-24T05:06:55.324Z,6.83
2023-03-24T05:09:26.308Z,6.87
2023-03-24T05:11:54.456Z,6.92
2023-03-24T05:14:24.074Z,6.96
2023-03-24T05:16:52.465Z,7.01
2023-03-24T05:19:21.811Z,7.07
2023-03-24T05:21:51.868Z,7.12
2023-03-24T05:24:21.588Z,7.15
2023-03-24T05:26:49.723Z,7.20
2023-03-24T05:29:20.508Z,7.26
2023-03-24T05:31:49.521Z,7.33
2023-03-24T05:34:21.677Z,7.38
2023-03-24T05:37:14.655Z,7.44
2023-03-24T05:39:43.090Z,7.49
2023-03-24T05:42:29.823Z,7.58
2023-03-24T05:45:03.925Z,7.68
2023-03-24T05:47:32.363Z,7.81
2023-03-24T05:50:01.029Z,7.93
2023-03-24T05:52:31.833Z,8.06
2023-03-24T05:55:11.290Z,8.19
2023-03-24T05:57:40.923Z,8.29
2023-03-24T06:00:57.574Z,8.38
2023-03-24T06:03:34.671Z,8.46
2023-03-24T06:06:16.952Z,8.53
2023-03-24T06:08:45.463Z,8.58
2023-03-24T06:11:14.712Z,8.66
2023-03-24T06:13:52.653Z,8.78
2023-03-24T06:16:24.247Z,8.88
2023-03-24T06:18:58.849Z,9.01
2023-03-24T06:21:50.722Z,9.13
2023-03-24T06:24:21.774Z,9.26
2023-03-24T06:26:50.543Z,9.35
2023-03-24T06:29:19.504Z,9.43
2023-03-24T06:31:49.126Z,9.53
2023-03-24T06:34:17.964Z,9.63
2023-03-24T06:36:53.382Z,9.73
2023-03-24T06:39:24.042Z,9.86
2023-03-24T06:41:52.728Z,9.98
2023-03-24T06:44:20.978Z,10.11
2023-03-24T06:46:49.466Z,10.14
2023-03-24T06:49:17.694Z,10.20
2023-03-24T06:51:45.989Z,10.25
2023-03-24T06:54:15.099Z,10.30
2023-03-24T06:56:43.975Z,10.39
2023-03-24T06:59:12.519Z,10.51
2023-03-24T07:01:40.907Z,10.68
2023-03-24T07:04:21.896Z,10.88
2023-03-24T07:07:22.399Z,11.10
2023-03-24T07:09:53.325Z,11.25
2023-03-24T07:12:21.563Z,11.48
2023-03-24T07:14:51.083Z,11.68
2023-03-24T07:17:19.350Z,11.91
2023-03-24T07:20:08.568Z,12.11
2023-03-24T07:22:42.917Z,12.20
2023-03-24T07:25:33.849Z,12.25
2023-03-24T07:28:14.222Z,12.48
2023-03-24T07:30:42.592Z,12.66
2023-03-24T07:33:12.787Z,12.78
2023-03-24T07:35:43.641Z,12.87
2023-03-24T07:38:12.345Z,13.03
2023-03-24T07:40:40.867Z,13.25
2023-03-24T07:43:09.147Z,13.49
2023-03-24T07:46:10.948Z,13.79
2023-03-24T07:48:40.025Z,14.14
2023-03-24T07:51:08.398Z,14.54
2023-03-24T07:53:48.067Z,14.94
2023-03-24T07:56:23.043Z,15.23
2023-03-24T07:58:55.066Z,15.54
2023-03-24T08:01:39.489Z,16.00
2023-03-24T08:04:14.346Z,16.34
2023-03-24T08:07:03.291Z,16.80
2023-03-24T08:09:31.520Z,17.22
2023-03-24T08:12:06.950Z,17.58
2023-03-24T08:14:42.042Z,17.98
2023-03-24T08:17:10.342Z,18.38
2023-03-24T08:19:45.432Z,18.76
2023-03-24T08:22:20.678Z,19.17
2023-03-24T08:24:48.784Z,19.47
2023-03-24T08:27:17.172Z,19.72
2023-03-24T08:29:45.356Z,20.13
2023-03-24T08:32:14.044Z,20.49
2023-03-24T08:34:42.296Z,20.84
2023-03-24T08:37:12.223Z,21.05
2023-03-24T08:39:40.377Z,21.17
2023-03-24T08:42:08.570Z,21.47
2023-03-24T08:44:36.865Z,21.79
2023-03-24T08:47:05.137Z,22.10
2023-03-24T08:49:33.394Z,22.12
2023-03-24T08:52:01.582Z,22.29
2023-03-24T08:54:29.730Z,22.31
2023-03-24T08:56:57.932Z,22.63
2023-03-24T08:59:26.170Z,22.50
2023-03-24T09:01:54.334Z,22.44
2023-03-24T09:04:22.597Z,22.60
2023-03-24T09:06:50.849Z,23.01
2023-03-24T09:09:19.019Z,23.66
2023-03-24T09:11:48.912Z,23.74
2023-03-24T09:14:17.082Z,24.01
2023-03-24T09:16:45.844Z,24.43
2023-03-24T09:19:14.409Z,24.58
2023-03-24T09:21:46.308Z,24.61
2023-03-24T09:24:15.506Z,24.63
2023-03-24T09:26:43.644Z,24.87
2023-03-24T09:29:12.206Z,24.94
2023-03-24T09:31:40.423Z,25.19
2023-03-24T09:34:08.680Z,25.38
2023-03-24T09:36:37.052Z,25.08
2023-03-24T09:39:05.233Z,24.61
2023-03-24T09:41:34.500Z,24.43
2023-03-24T09:44:06.056Z,24.19
2023-03-24T09:47:06.837Z,24.12
2023-03-24T09:49:38.898Z,23.91
2023-03-24T09:52:11.194Z,24.13
2023-03-24T09:54:53.866Z,24.12
2023-03-24T09:57:27.495Z,23.69
2023-03-24T09:59:56.716Z,23.79
2023-03-24T10:02:30.079Z,23.95
2023-03-24T10:04:59.601Z,23.98
2023-03-24T10:07:59.930Z,24.24
2023-03-24T10:10:40.982Z,24.48
2023-03-24T10:13:21.287Z,24.90
2023-03-24T10:16:18.584Z,25.11
2023-03-24T10:18:57.168Z,24.83
2023-03-24T10:21:33.458Z,24.57
2023-03-24T10:24:14.094Z,24.74
2023-03-24T10:26:45.182Z,25.11
2023-03-24T10:29:22.742Z,25.28
2023-03-24T10:31:57.425Z,25.49
2023-03-24T10:34:31.079Z,25.62
2023-03-24T10:37:02.415Z,25.82
2023-03-24T10:39:44.045Z,25.97
2023-03-24T10:42:19.622Z,25.84
2023-03-24T10:44:51.957Z,25.06
2023-03-24T10:47:26.394Z,24.55
2023-03-24T10:50:14.046Z,24.33
2023-03-24T10:52:47.079Z,23.80
2023-03-24T10:55:19.300Z,23.08
2023-03-24T10:57:53.941Z,23.06
2023-03-24T11:00:30.034Z,23.40
2023-03-24T11:03:05.429Z,24.00
2023-03-24T11:05:36.818Z,24.73
2023-03-24T11:08:22.438Z,25.09
2023-03-24T11:10:50.523Z,24.64
2023-03-24T11:13:26.709Z,24.66
2023-03-24T11:16:17.727Z,25.17
2023-03-24T11:19:03.903Z,25.81
2023-03-24T11:21:36.462Z,26.34
2023-03-24T11:24:12.344Z,26.49
2023-03-24T11:26:44.232Z,26.73
2023-03-24T11:29:19.132Z,26.86
2023-03-24T11:31:56.698Z,27.15
2023-03-24T11:34:34.490Z,27.24
2023-03-24T11:37:08.445Z,27.39
2023-03-24T11:39:37.008Z,27.18
2023-03-24T11:42:11.194Z,27.05
2023-03-24T11:44:39.458Z,27.16
2023-03-24T11:47:18.584Z,27.19
2023-03-24T11:50:01.495Z,27.39
2023-03-24T11:52:34.939Z,27.68
2023-03-24T11:55:13.295Z,27.58
2023-03-24T11:57:47.208Z,28.10
2023-03-24T12:00:18.739Z,28.66
2023-03-24T12:03:01.482Z,28.37
2023-03-24T12:05:38.538Z,28.42
2023-03-24T12:08:22.995Z,28.41
2023-03-24T12:11:23.202Z,28.92
2023-03-24T12:13:53.067Z,28.93
2023-03-24T12:16:50.987Z,28.80
2023-03-24T12:19:19.237Z,28.85
2023-03-24T12:22:15.612Z,28.64
2023-03-24T12:24:47.126Z,28.40
2023-03-24T12:27:42.796Z,28.12
2023-03-24T12:30:25.986Z,28.21
2023-03-24T12:33:16.297Z,28.60
2023-03-24T12:36:22.745Z,28.63
2023-03-24T12:39:04.950Z,28.94
2023-03-24T12:41:42.111Z,28.69
2023-03-24T12:44:32.289Z,28.31
2023-03-24T12:47:06.948Z,28.11
2023-03-24T12:50:16.513Z,28.07
2023-03-24T12:53:12.027Z,27.97
2023-03-24T12:55:51.490Z,28.15
2023-03-24T12:58:25.932Z,28.42
2023-03-24T13:01:29.840Z,28.49
2023-03-24T13:04:07.196Z,28.26
2023-03-24T13:06:39.211Z,28.21
2023-03-24T13:09:35.212Z,28.02
2023-03-24T13:12:26.180Z,27.77
2023-03-24T13:15:09.531Z,27.67
2023-03-24T13:17:52.672Z,27.58
2023-03-24T13:20:33.225Z,27.59
2023-03-24T13:23:20.505Z,27.66
2023-03-24T13:26:20.164Z,27.40
2023-03-24T13:29:49.891Z,27.23
2023-03-24T13:32:24.498Z,27.03
2023-03-24T13:34:56.094Z,26.83
2023-03-24T13:37:29.812Z,26.53
2023-03-24T13:40:00.868Z,26.47
2023-03-24T13:42:33.384Z,26.36
2023-03-24T13:45:05.343Z,26.33
2023-03-24T13:48:07.518Z,26.58
2023-03-24T13:50:54.165Z,26.72
2023-03-24T13:53:37.249Z,26.75
2023-03-24T13:56:07.969Z,26.53
2023-03-24T13:59:05.693Z,26.69
2023-03-24T14:01:42.725Z,26.51
2023-03-24T14:04:27.939Z,26.14
2023-03-24T14:06:59.144Z,25.93
2023-03-24T14:09:30.166Z,25.78
2023-03-24T14:12:04.806Z,25.38
2023-03-24T14:15:11.446Z,25.04
2023-03-24T14:17:49.202Z,24.45
2023-03-24T14:20:33.245Z,24.04
2023-03-24T14:23:03.675Z,23.72
2023-03-24T14:25:34.055Z,23.33
2023-03-24T14:28:23.174Z,23.14
2023-03-24T14:31:10.346Z,23.13
2023-03-24T14:33:41.299Z,23.04
2023-03-24T14:36:13.220Z,22.98
2023-03-24T14:38:44.548Z,22.91
2023-03-24T14:41:16.541Z,22.88
2023-03-24T14:43:44.663Z,22.70
2023-03-24T14:46:21.940Z,22.50
2023-03-24T14:49:04.070Z,22.46
2023-03-24T14:51:36.910Z,22.30
2023-03-24T14:54:14.371Z,22.14
2023-03-24T14:56:45.783Z,21.92
2023-03-24T14:59:34.383Z,21.76
2023-03-24T15:02:37.215Z,21.63
2023-03-24T15:05:31.948Z,21.51
2023-03-24T15:08:21.894Z,21.40
2023-03-24T15:10:58.916Z,21.33
2023-03-24T15:13:43.818Z,21.24
2023-03-24T15:16:12.043Z,21.13
2023-03-24T15:19:02.109Z,21.05
2023-03-24T15:21:35.399Z,20.95
2023-03-24T15:24:23.489Z,20.85
2023-03-24T15:27:13.872Z,20.73
2023-03-24T15:29:43.834Z,20.72
2023-03-24T15:32:24.183Z,20.86
2023-03-24T15:34:55.839Z,21.03
2023-03-24T15:37:25.778Z,21.12
2023-03-24T15:39:59.372Z,21.13
2023-03-24T15:42:41.486Z,21.07
2023-03-24T15:45:26.368Z,21.00
2023-03-24T15:47:56.154Z,20.88
2023-03-24T15:50:32.564Z,20.75
2023-03-24T15:53:03.918Z,20.59
2023-03-24T15:55:35.094Z,20.43
2023-03-24T15:58:23.042Z,20.30
2023-03-24T16:00:59.669Z,20.15
2023-03-24T16:03:31.014Z,20.01
2023-03-24T16:05:59.249Z,19.85
2023-03-24T16:08:41.780Z,19.73
2023-03-24T16:11:14.780Z,19.59
2023-03-24T16:13:47.736Z,19.42
2023-03-24T16:16:16.089Z,19.20
2023-03-24T16:18:48.796Z,18.99
2023-03-24T16:21:29.274Z,18.78
2023-03-24T16:23:58.369Z,18.59
2023-03-24T16:26:29.639Z,18.43
2023-03-24T16:32:04.328Z,18.37
2023-03-24T16:34:32.619Z,18.32
2023-03-24T16:37:00.779Z,18.16
2023-03-24T16:39:29.768Z,17.99
2023-03-24T16:41:58.078Z,17.81
2023-03-24T16:44:26.642Z,17.65
2023-03-24T16:46:55.763Z,17.52
2023-03-24T16:49:24.894Z,17.43
2023-03-24T16:51:54.038Z,17.36
2023-03-24T16:54:22.377Z,17.28
2023-03-24T16:56:50.732Z,17.20
2023-03-24T16:59:19.893Z,17.13
2023-03-24T17:01:48.339Z,17.08
2023-03-24T17:04:19.612Z,17.04
2023-03-24T17:06:54.663Z,17.05
2023-03-24T17:09:23.873Z,17.07
2023-03-24T17:11:55.502Z,17.06
2023-03-24T17:14:24.178Z,17.02
2023-03-24T17:16:53.839Z,16.98
2023-03-24T17:19:24.675Z,16.93
2023-03-24T17:22:03.607Z,16.89
2023-03-24T17:24:36.885Z,16.83
2023-03-24T17:27:10.981Z,16.78
2023-03-24T17:29:39.397Z,16.73
2023-03-24T17:32:08.432Z,16.69
2023-03-24T17:34:38.044Z,16.66
2023-03-24T17:37:06.577Z,16.60
2023-03-24T17:39:34.753Z,16.61
2023-03-24T17:42:03.050Z,16.66
2023-03-24T17:44:33.911Z,16.64
2023-03-24T17:47:02.133Z,16.61
2023-03-24T17:49:30.494Z,16.64
2023-03-24T17:51:58.944Z,16.65
2023-03-24T17:54:28.493Z,16.59
2023-03-24T17:56:56.855Z,16.52
2023-03-24T17:59:25.168Z,16.52
2023-03-24T18:01:53.619Z,16.50
2023-03-24T18:04:24.033Z,16.43
2023-03-24T18:06:52.378Z,16.36
2023-03-24T18:09:20.595Z,16.24
2023-03-24T18:11:48.913Z,16.16
2023-03-24T18:14:17.397Z,16.08
2023-03-24T18:16:46.108Z,16.00
2023-03-24T18:19:14.268Z,15.95
2023-03-24T18:21:42.869Z,15.93
2023-03-24T18:24:12.400Z,15.94
2023-03-24T18:26:40.690Z,15.91
2023-03-24T18:29:09.088Z,15.83
2023-03-24T18:31:37.388Z,15.80
2023-03-24T18:34:05.680Z,15.78
2023-03-24T18:36:33.897Z,15.75
2023-03-24T18:39:05.795Z,15.73
2023-03-24T18:41:37.406Z,15.73
2023-03-24T18:44:12.707Z,15.70
2023-03-24T18:46:41.014Z,15.67
2023-03-24T18:49:14.591Z,15.64
2023-03-24T18:51:43.734Z,15.62
2023-03-24T18:54:13.343Z,15.58
2023-03-24T18:56:42.032Z,15.54
2023-03-24T18:59:12.001Z,15.53
2023-03-24T19:01:40.382Z,15.51
2023-03-24T19:04:09.516Z,15.50
2023-03-24T19:06:42.426Z,15.48
2023-03-24T19:09:12.903Z,15.46
2023-03-24T19:11:43.439Z,15.44
2023-03-24T19:14:11.991Z,15.45
2023-03-24T19:16:40.577Z,15.43
2023-03-24T19:19:10.102Z,15.42
2023-03-24T19:21:40.670Z,15.39
2023-03-24T19:24:08.907Z,15.39
2023-03-24T19:26:38.568Z,15.39
2023-03-24T19:29:07.010Z,15.39
2023-03-24T19:31:35.456Z,15.40
2023-03-24T19:34:03.884Z,15.42
2023-03-24T19:36:32.294Z,15.46
2023-03-24T19:39:02.188Z,15.45
2023-03-24T19:41:30.398Z,15.47
2023-03-24T19:43:58.674Z,15.46
2023-03-24T19:46:26.899Z,15.44
2023-03-24T19:48:55.137Z,15.39
2023-03-24T19:51:24.434Z,15.36
2023-03-24T19:53:52.634Z,15.33
2023-03-24T19:56:22.118Z,15.27
2023-03-24T19:58:50.443Z,15.21
2023-03-24T20:01:19.771Z,15.16
2023-03-24T20:03:48.244Z,15.09
2023-03-24T20:06:18.519Z,15.08
2023-03-24T20:08:47.995Z,15.06
2023-03-24T20:11:16.499Z,15.03
2023-03-24T20:13:44.653Z,15.01
2023-03-24T20:16:12.917Z,15.01
2023-03-24T20:18:41.316Z,15.02
2023-03-24T20:21:12.283Z,14.98
2023-03-24T20:23:40.450Z,14.81
2023-03-24T20:26:08.764Z,14.60
2023-03-24T20:28:36.937Z,14.41
2023-03-24T20:31:06.721Z,14.36
2023-03-24T20:33:35.061Z,14.34
2023-03-24T20:36:04.979Z,14.32
2023-03-24T20:38:33.381Z,14.28
2023-03-24T20:41:05.687Z,14.24
2023-03-24T20:43:36.392Z,14.21
2023-03-24T20:46:08.007Z,14.17
2023-03-24T20:48:36.528Z,14.15
2023-03-24T20:51:06.014Z,14.14
2023-03-24T20:53:36.056Z,14.16
2023-03-24T20:56:09.470Z,14.12
2023-03-24T20:58:38.524Z,14.08
2023-03-24T21:01:20.691Z,14.06
2023-03-24T21:03:51.335Z,14.04
2023-03-24T21:06:20.848Z,14.06
2023-03-24T21:08:49.122Z,14.10
2023-03-24T21:11:17.322Z,14.10
2023-03-24T21:13:46.050Z,14.10
2023-03-24T21:16:14.499Z,14.11
2023-03-24T21:18:42.818Z,14.14
2023-03-24T21:21:12.783Z,14.12
2023-03-24T21:23:42.996Z,13.97
2023-03-24T21:26:18.121Z,13.82
2023-03-24T21:28:46.770Z,13.69
2023-03-24T21:31:21.824Z,13.51
2023-03-24T21:33:51.364Z,13.33
2023-03-24T21:36:20.269Z,13.17
2023-03-24T21:38:52.302Z,12.99
2023-03-24T21:41:21.846Z,12.82
2023-03-24T21:43:54.618Z,12.65
2023-03-24T21:46:26.466Z,12.48
2023-03-24T21:48:59.620Z,12.32
2023-03-24T21:51:30.841Z,12.16
2023-03-24T21:54:03.464Z,12.00
2023-03-24T21:56:33.878Z,11.89
2023-03-24T21:59:02.360Z,11.79
2023-03-24T22:01:34.219Z,11.71
2023-03-24T22:04:03.767Z,11.62
2023-03-24T22:06:38.003Z,11.54
2023-03-24T22:09:08.430Z,11.46
2023-03-24T22:11:42.890Z,11.38
2023-03-24T22:14:12.845Z,11.33
2023-03-24T22:16:41.157Z,11.32
2023-03-24T22:19:09.456Z,11.32
2023-03-24T22:21:39.520Z,11.37
2023-03-24T22:24:08.466Z,11.36
2023-03-24T22:26:36.725Z,11.29
2023-03-24T22:29:04.945Z,11.25
2023-03-24T22:31:33.191Z,11.19
2023-03-24T22:34:01.848Z,11.14
2023-03-24T22:36:29.967Z,11.11
2023-03-24T22:38:58.065Z,11.08
2023-03-24T22:41:26.417Z,11.12
2023-03-24T22:43:54.721Z,11.12
2023-03-24T22:46:24.715Z,11.07
2023-03-24T22:48:52.994Z,11.04
2023-03-24T22:51:21.609Z,11.02
2023-03-24T22:53:50.020Z,10.97
2023-03-24T22:56:18.233Z,10.94
2023-03-24T22:58:46.409Z,10.89
2023-03-24T23:01:14.758Z,10.80
2023-03-24T23:03:43.244Z,10.73
2023-03-24T23:06:12.123Z,10.66
2023-03-24T23:08:40.354Z,10.60
2023-03-24T23:11:09.112Z,10.55
2023-03-24T23:13:39.071Z,10.53
2023-03-24T23:16:07.831Z,10.50
2023-03-24T23:18:37.014Z,10.46
2023-03-24T23:21:11.596Z,10.43
2023-03-24T23:23:41.389Z,10.41
2023-03-24T23:26:26.461Z,10.40
2023-03-24T23:28:55.163Z,10.37
2023-03-24T23:31:26.005Z,10.32
2023-03-24T23:33:58.336Z,10.28
2023-03-24T23:36:28.630Z,10.25
2023-03-24T23:38:57.110Z,10.21
2023-03-24T23:41:25.552Z,10.17
2023-03-24T23:43:54.057Z,10.16
2023-03-24T23:46:24.501Z,10.14
2023-03-24T23:48:52.873Z,10.10
2023-03-24T23:51:22.382Z,10.04
2023-03-24T23:53:51.161Z,9.97
2023-03-24T23:56:23.055Z,9.92
2023-03-24T23:58:51.285Z,9.88
